sensor_id;sensor_type;location;lat;lon;timestamp;P1;durP1;ratioP1;P2;durP2;ratioP2
34960;SDS011;30789;52.030;7.110;2022-12-18T00:01:29;35.47;;;13.15;;
34960;SDS011;30789;52.030;7.110;2022-12-18T00:03:57;31.00;;;13.98;;
34960;SDS011;30789;52.030;7.110;2022-12-18T00:06:24;33.35;;;13.73;;
34960;SDS011;30789;52.030;7.110;2022-12-18T00:08:50;25.38;;;12.15;;
34960;SDS011;30789;52.030;7.110;2022-12-18T00:11:17;23.25;;;12.00;;
34960;SDS011;30789;52.030;7.110;2022-12-18T00:13:44;24.25;;;11.45;;
34960;SDS011;30789;52.030;7.110;2022-12-18T00:16:12;24.70;;;13.18;;
34960;SDS011;30789;52.030;7.110;2022-12-18T00:18:38;26.75;;;11.98;;
34960;SDS011;30789;52.030;7.110;2022-12-18T00:21:07;30.70;;;12.27;;
34960;SDS011;30789;52.030;7.110;2022-12-18T00:23:34;28.15;;;13.82;;
34960;SDS011;30789;52.030;7.110;2022-12-18T00:26:00;27.02;;;11.63;;
34960;SDS011;30789;52.030;7.110;2022-12-18T00:28:27;40.08;;;13.02;;
34960;SDS011;30789;52.030;7.110;2022-12-18T00:30:59;24.75;;;12.63;;
34960;SDS011;30789;52.030;7.110;2022-12-18T00:33:25;23.67;;;11.25;;
34960;SDS011;30789;52.030;7.110;2022-12-18T00:35:51;22.33;;;9.98;;
34960;SDS011;30789;52.030;7.110;2022-12-18T00:38:19;18.08;;;9.07;;
34960;SDS011;30789;52.030;7.110;2022-12-18T00:40:45;21.35;;;10.75;;
34960;SDS011;30789;52.030;7.110;2022-12-18T00:43:11;21.48;;;10.93;;
34960;SDS011;30789;52.030;7.110;2022-12-18T00:45:36;18.80;;;10.82;;
34960;SDS011;30789;52.030;7.110;2022-12-18T00:48:03;14.32;;;9.05;;
34960;SDS011;30789;52.030;7.110;2022-12-18T00:50:29;22.13;;;9.80;;
34960;SDS011;30789;52.030;7.110;2022-12-18T00:52:56;18.05;;;8.68;;
34960;SDS011;30789;52.030;7.110;2022-12-18T00:55:23;19.67;;;9.25;;
34960;SDS011;30789;52.030;7.110;2022-12-18T00:57:50;19.08;;;9.82;;
34960;SDS011;30789;52.030;7.110;2022-12-18T01:00:16;22.42;;;10.70;;
34960;SDS011;30789;52.030;7.110;2022-12-18T01:02:43;20.92;;;9.27;;
34960;SDS011;30789;52.030;7.110;2022-12-18T01:05:09;18.70;;;9.63;;
34960;SDS011;30789;52.030;7.110;2022-12-18T01:07:36;17.83;;;9.48;;
34960;SDS011;30789;52.030;7.110;2022-12-18T01:10:02;19.15;;;9.20;;
34960;SDS011;30789;52.030;7.110;2022-12-18T01:12:30;17.20;;;8.43;;
34960;SDS011;30789;52.030;7.110;2022-12-18T01:14:56;23.15;;;9.77;;
34960;SDS011;30789;52.030;7.110;2022-12-18T01:17:23;18.20;;;10.55;;
34960;SDS011;30789;52.030;7.110;2022-12-18T01:19:49;20.70;;;10.45;;
34960;SDS011;30789;52.030;7.110;2022-12-18T01:22:15;15.80;;;9.32;;
34960;SDS011;30789;52.030;7.110;2022-12-18T01:24:42;16.75;;;9.68;;
34960;SDS011;30789;52.030;7.110;2022-12-18T01:27:08;19.92;;;10.60;;
34960;SDS011;30789;52.030;7.110;2022-12-18T01:29:35;21.80;;;8.88;;
34960;SDS011;30789;52.030;7.110;2022-12-18T01:32:02;19.20;;;8.80;;
34960;SDS011;30789;52.030;7.110;2022-12-18T01:34:28;14.30;;;8.68;;
34960;SDS011;30789;52.030;7.110;2022-12-18T01:36:54;15.45;;;7.55;;
34960;SDS011;30789;52.030;7.110;2022-12-18T01:39:20;19.55;;;9.02;;
34960;SDS011;30789;52.030;7.110;2022-12-18T01:41:47;17.83;;;8.05;;
34960;SDS011;30789;52.030;7.110;2022-12-18T01:47:18;12.38;;;6.35;;
34960;SDS011;30789;52.030;7.110;2022-12-18T01:49:46;14.05;;;8.93;;
34960;SDS011;30789;52.030;7.110;2022-12-18T01:52:12;16.95;;;9.00;;
34960;SDS011;30789;52.030;7.110;2022-12-18T01:54:39;19.00;;;9.93;;
34960;SDS011;30789;52.030;7.110;2022-12-18T01:57:05;16.65;;;8.73;;
34960;SDS011;30789;52.030;7.110;2022-12-18T01:59:31;18.00;;;8.25;;
34960;SDS011;30789;52.030;7.110;2022-12-18T02:01:58;15.70;;;8.00;;
34960;SDS011;30789;52.030;7.110;2022-12-18T02:04:26;14.82;;;6.90;;
34960;SDS011;30789;52.030;7.110;2022-12-18T02:06:54;19.60;;;10.55;;
34960;SDS011;30789;52.030;7.110;2022-12-18T02:09:25;15.52;;;7.75;;
34960;SDS011;30789;52.030;7.110;2022-12-18T02:11:58;22.03;;;9.07;;
34960;SDS011;30789;52.030;7.110;2022-12-18T02:14:28;12.10;;;7.38;;
34960;SDS011;30789;52.030;7.110;2022-12-18T02:17:06;17.15;;;7.32;;
34960;SDS011;30789;52.030;7.110;2022-12-18T02:19:47;15.07;;;8.68;;
34960;SDS011;30789;52.030;7.110;2022-12-18T02:22:20;13.85;;;7.22;;
34960;SDS011;30789;52.030;7.110;2022-12-18T02:24:55;15.95;;;8.05;;
34960;SDS011;30789;52.030;7.110;2022-12-18T02:27:36;8.90;;;6.13;;
34960;SDS011;30789;52.030;7.110;2022-12-18T02:30:04;14.07;;;7.43;;
34960;SDS011;30789;52.030;7.110;2022-12-18T02:32:32;12.77;;;7.53;;
34960;SDS011;30789;52.030;7.110;2022-12-18T02:35:00;15.82;;;7.07;;
34960;SDS011;30789;52.030;7.110;2022-12-18T02:37:27;15.70;;;7.75;;
34960;SDS011;30789;52.030;7.110;2022-12-18T02:39:54;13.05;;;7.30;;
34960;SDS011;30789;52.030;7.110;2022-12-18T02:42:22;16.17;;;6.40;;
34960;SDS011;30789;52.030;7.110;2022-12-18T02:44:50;12.15;;;5.55;;
34960;SDS011;30789;52.030;7.110;2022-12-18T02:47:24;10.90;;;6.35;;
34960;SDS011;30789;52.030;7.110;2022-12-18T02:49:56;7.03;;;5.32;;
34960;SDS011;30789;52.030;7.110;2022-12-18T02:52:25;13.57;;;5.88;;
34960;SDS011;30789;52.030;7.110;2022-12-18T02:54:56;7.47;;;4.88;;
34960;SDS011;30789;52.030;7.110;2022-12-18T02:57:24;8.20;;;5.45;;
34960;SDS011;30789;52.030;7.110;2022-12-18T02:59:56;9.82;;;5.43;;
34960;SDS011;30789;52.030;7.110;2022-12-18T03:02:25;7.68;;;5.90;;
34960;SDS011;30789;52.030;7.110;2022-12-18T03:04:55;11.35;;;5.78;;
34960;SDS011;30789;52.030;7.110;2022-12-18T03:07:23;7.90;;;5.78;;
34960;SDS011;30789;52.030;7.110;2022-12-18T03:09:51;15.57;;;5.75;;
34960;SDS011;30789;52.030;7.110;2022-12-18T03:12:20;8.35;;;5.20;;
34960;SDS011;30789;52.030;7.110;2022-12-18T03:14:50;14.50;;;6.32;;
34960;SDS011;30789;52.030;7.110;2022-12-18T03:17:19;10.15;;;5.57;;
34960;SDS011;30789;52.030;7.110;2022-12-18T03:19:46;8.43;;;4.55;;
34960;SDS011;30789;52.030;7.110;2022-12-18T03:22:13;12.82;;;5.68;;
34960;SDS011;30789;52.030;7.110;2022-12-18T03:24:42;8.45;;;4.85;;
34960;SDS011;30789;52.030;7.110;2022-12-18T03:27:08;7.60;;;4.50;;
34960;SDS011;30789;52.030;7.110;2022-12-18T03:29:37;14.48;;;5.50;;
34960;SDS011;30789;52.030;7.110;2022-12-18T03:32:05;9.70;;;4.80;;
34960;SDS011;30789;52.030;7.110;2022-12-18T03:34:35;11.57;;;5.97;;
34960;SDS011;30789;52.030;7.110;2022-12-18T03:37:02;11.18;;;5.22;;
34960;SDS011;30789;52.030;7.110;2022-12-18T03:39:29;7.88;;;5.05;;
34960;SDS011;30789;52.030;7.110;2022-12-18T03:41:59;7.80;;;3.78;;
34960;SDS011;30789;52.030;7.110;2022-12-18T03:44:28;8.07;;;4.45;;
34960;SDS011;30789;52.030;7.110;2022-12-18T03:46:57;7.57;;;4.65;;
34960;SDS011;30789;52.030;7.110;2022-12-18T03:49:25;12.68;;;5.93;;
34960;SDS011;30789;52.030;7.110;2022-12-18T03:51:57;8.45;;;4.50;;
34960;SDS011;30789;52.030;7.110;2022-12-18T03:54:25;10.82;;;4.88;;
34960;SDS011;30789;52.030;7.110;2022-12-18T03:56:59;13.02;;;5.95;;
34960;SDS011;30789;52.030;7.110;2022-12-18T03:59:27;8.35;;;4.68;;
34960;SDS011;30789;52.030;7.110;2022-12-18T04:01:54;15.98;;;6.28;;
34960;SDS011;30789;52.030;7.110;2022-12-18T04:04:22;11.05;;;6.05;;
34960;SDS011;30789;52.030;7.110;2022-12-18T04:06:50;7.38;;;4.43;;
34960;SDS011;30789;52.030;7.110;2022-12-18T04:09:18;10.93;;;5.40;;
34960;SDS011;30789;52.030;7.110;2022-12-18T04:11:45;7.70;;;4.82;;
34960;SDS011;30789;52.030;7.110;2022-12-18T04:14:11;9.05;;;5.47;;
34960;SDS011;30789;52.030;7.110;2022-12-18T04:16:38;7.78;;;4.40;;
34960;SDS011;30789;52.030;7.110;2022-12-18T04:19:04;6.88;;;4.57;;
34960;SDS011;30789;52.030;7.110;2022-12-18T04:21:30;6.15;;;4.22;;
34960;SDS011;30789;52.030;7.110;2022-12-18T04:23:57;8.93;;;4.80;;
34960;SDS011;30789;52.030;7.110;2022-12-18T04:26:24;6.28;;;4.05;;
34960;SDS011;30789;52.030;7.110;2022-12-18T04:28:50;7.20;;;4.82;;
34960;SDS011;30789;52.030;7.110;2022-12-18T04:31:17;6.07;;;4.13;;
34960;SDS011;30789;52.030;7.110;2022-12-18T04:33:43;13.02;;;4.53;;
34960;SDS011;30789;52.030;7.110;2022-12-18T04:36:09;8.85;;;4.80;;
34960;SDS011;30789;52.030;7.110;2022-12-18T04:38:37;7.40;;;4.00;;
34960;SDS011;30789;52.030;7.110;2022-12-18T04:41:03;10.80;;;5.43;;
34960;SDS011;30789;52.030;7.110;2022-12-18T04:43:31;8.18;;;4.30;;
34960;SDS011;30789;52.030;7.110;2022-12-18T04:46:01;7.90;;;3.95;;
34960;SDS011;30789;52.030;7.110;2022-12-18T04:48:27;7.53;;;4.05;;
34960;SDS011;30789;52.030;7.110;2022-12-18T04:50:53;8.68;;;4.25;;
34960;SDS011;30789;52.030;7.110;2022-12-18T04:53:20;7.65;;;4.05;;
34960;SDS011;30789;52.030;7.110;2022-12-18T04:55:46;6.82;;;4.10;;
34960;SDS011;30789;52.030;7.110;2022-12-18T04:58:12;6.80;;;4.68;;
34960;SDS011;30789;52.030;7.110;2022-12-18T05:00:40;7.63;;;4.05;;
34960;SDS011;30789;52.030;7.110;2022-12-18T05:03:06;10.82;;;3.80;;
34960;SDS011;30789;52.030;7.110;2022-12-18T05:05:33;4.85;;;3.05;;
34960;SDS011;30789;52.030;7.110;2022-12-18T05:08:00;5.93;;;2.83;;
34960;SDS011;30789;52.030;7.110;2022-12-18T05:10:26;5.03;;;3.05;;
34960;SDS011;30789;52.030;7.110;2022-12-18T05:12:52;5.05;;;3.72;;
34960;SDS011;30789;52.030;7.110;2022-12-18T05:15:26;7.32;;;3.50;;
34960;SDS011;30789;52.030;7.110;2022-12-18T05:17:54;5.07;;;3.20;;
34960;SDS011;30789;52.030;7.110;2022-12-18T05:20:20;5.35;;;3.97;;
34960;SDS011;30789;52.030;7.110;2022-12-18T05:22:46;9.45;;;3.25;;
34960;SDS011;30789;52.030;7.110;2022-12-18T05:25:13;7.03;;;3.90;;
34960;SDS011;30789;52.030;7.110;2022-12-18T05:27:40;4.05;;;3.55;;
34960;SDS011;30789;52.030;7.110;2022-12-18T05:30:06;5.30;;;3.45;;
34960;SDS011;30789;52.030;7.110;2022-12-18T05:32:33;5.05;;;3.50;;
34960;SDS011;30789;52.030;7.110;2022-12-18T05:35:00;8.88;;;3.70;;
34960;SDS011;30789;52.030;7.110;2022-12-18T05:37:27;7.53;;;5.00;;
34960;SDS011;30789;52.030;7.110;2022-12-18T05:39:53;6.47;;;3.67;;
34960;SDS011;30789;52.030;7.110;2022-12-18T05:42:19;6.68;;;4.00;;
34960;SDS011;30789;52.030;7.110;2022-12-18T05:44:46;6.20;;;4.05;;
34960;SDS011;30789;52.030;7.110;2022-12-18T05:47:12;6.78;;;3.75;;
34960;SDS011;30789;52.030;7.110;2022-12-18T05:49:38;9.32;;;4.85;;
34960;SDS011;30789;52.030;7.110;2022-12-18T05:52:06;6.22;;;4.55;;
34960;SDS011;30789;52.030;7.110;2022-12-18T05:54:32;9.68;;;6.00;;
34960;SDS011;30789;52.030;7.110;2022-12-18T05:56:59;8.90;;;4.75;;
34960;SDS011;30789;52.030;7.110;2022-12-18T05:59:25;9.20;;;5.15;;
34960;SDS011;30789;52.030;7.110;2022-12-18T06:01:51;7.22;;;4.40;;
34960;SDS011;30789;52.030;7.110;2022-12-18T06:04:17;10.90;;;5.55;;
34960;SDS011;30789;52.030;7.110;2022-12-18T06:06:44;7.97;;;4.63;;
34960;SDS011;30789;52.030;7.110;2022-12-18T06:09:11;4.80;;;4.00;;
34960;SDS011;30789;52.030;7.110;2022-12-18T06:11:38;7.47;;;4.05;;
34960;SDS011;30789;52.030;7.110;2022-12-18T06:14:04;6.90;;;4.80;;
34960;SDS011;30789;52.030;7.110;2022-12-18T06:16:31;6.78;;;4.65;;
34960;SDS011;30789;52.030;7.110;2022-12-18T06:18:58;9.27;;;5.43;;
34960;SDS011;30789;52.030;7.110;2022-12-18T06:21:24;9.25;;;5.40;;
34960;SDS011;30789;52.030;7.110;2022-12-18T06:23:50;8.95;;;5.50;;
34960;SDS011;30789;52.030;7.110;2022-12-18T06:26:18;10.10;;;5.97;;
34960;SDS011;30789;52.030;7.110;2022-12-18T06:28:44;8.02;;;5.22;;
34960;SDS011;30789;52.030;7.110;2022-12-18T06:31:11;12.25;;;5.72;;
34960;SDS011;30789;52.030;7.110;2022-12-18T06:33:37;7.30;;;4.47;;
34960;SDS011;30789;52.030;7.110;2022-12-18T06:36:05;7.00;;;4.30;;
34960;SDS011;30789;52.030;7.110;2022-12-18T06:38:32;6.55;;;5.03;;
34960;SDS011;30789;52.030;7.110;2022-12-18T06:40:58;8.10;;;4.55;;
34960;SDS011;30789;52.030;7.110;2022-12-18T06:43:26;8.77;;;5.68;;
34960;SDS011;30789;52.030;7.110;2022-12-18T06:45:59;7.43;;;4.18;;
34960;SDS011;30789;52.030;7.110;2022-12-18T06:48:26;3.75;;;3.15;;
34960;SDS011;30789;52.030;7.110;2022-12-18T06:50:52;6.80;;;4.70;;
34960;SDS011;30789;52.030;7.110;2022-12-18T06:53:18;5.57;;;4.00;;
34960;SDS011;30789;52.030;7.110;2022-12-18T06:55:45;7.03;;;4.50;;
34960;SDS011;30789;52.030;7.110;2022-12-18T06:58:11;7.63;;;4.25;;
34960;SDS011;30789;52.030;7.110;2022-12-18T07:00:38;8.32;;;4.18;;
34960;SDS011;30789;52.030;7.110;2022-12-18T07:03:05;9.32;;;4.55;;
34960;SDS011;30789;52.030;7.110;2022-12-18T07:05:31;10.48;;;6.00;;
34960;SDS011;30789;52.030;7.110;2022-12-18T07:07:58;13.07;;;5.45;;
34960;SDS011;30789;52.030;7.110;2022-12-18T07:10:24;6.88;;;5.13;;
34960;SDS011;30789;52.030;7.110;2022-12-18T07:12:50;9.88;;;6.43;;
34960;SDS011;30789;52.030;7.110;2022-12-18T07:15:17;11.45;;;6.50;;
34960;SDS011;30789;52.030;7.110;2022-12-18T07:17:44;12.15;;;6.60;;
34960;SDS011;30789;52.030;7.110;2022-12-18T07:20:11;8.35;;;5.57;;
34960;SDS011;30789;52.030;7.110;2022-12-18T07:22:37;9.57;;;5.13;;
34960;SDS011;30789;52.030;7.110;2022-12-18T07:25:04;10.00;;;5.45;;
34960;SDS011;30789;52.030;7.110;2022-12-18T07:27:30;9.93;;;4.35;;
34960;SDS011;30789;52.030;7.110;2022-12-18T07:29:56;8.50;;;5.32;;
34960;SDS011;30789;52.030;7.110;2022-12-18T07:32:23;14.57;;;6.38;;
34960;SDS011;30789;52.030;7.110;2022-12-18T07:34:50;13.45;;;6.88;;
34960;SDS011;30789;52.030;7.110;2022-12-18T07:37:17;9.90;;;6.13;;
34960;SDS011;30789;52.030;7.110;2022-12-18T07:39:43;9.25;;;4.78;;
34960;SDS011;30789;52.030;7.110;2022-12-18T07:42:09;4.28;;;3.80;;
34960;SDS011;30789;52.030;7.110;2022-12-18T07:44:53;4.95;;;3.53;;
34960;SDS011;30789;52.030;7.110;2022-12-18T07:47:19;7.15;;;4.35;;
34960;SDS011;30789;52.030;7.110;2022-12-18T07:49:45;8.07;;;3.90;;
34960;SDS011;30789;52.030;7.110;2022-12-18T07:52:13;7.35;;;4.53;;
34960;SDS011;30789;52.030;7.110;2022-12-18T07:54:39;8.95;;;3.83;;
34960;SDS011;30789;52.030;7.110;2022-12-18T07:57:06;9.05;;;4.65;;
34960;SDS011;30789;52.030;7.110;2022-12-18T07:59:32;5.60;;;4.30;;
34960;SDS011;30789;52.030;7.110;2022-12-18T08:01:59;4.28;;;3.28;;
34960;SDS011;30789;52.030;7.110;2022-12-18T08:04:25;5.28;;;3.50;;
34960;SDS011;30789;52.030;7.110;2022-12-18T08:06:51;6.32;;;3.33;;
34960;SDS011;30789;52.030;7.110;2022-12-18T08:09:19;4.45;;;3.05;;
34960;SDS011;30789;52.030;7.110;2022-12-18T08:11:45;5.68;;;3.60;;
34960;SDS011;30789;52.030;7.110;2022-12-18T08:14:11;4.68;;;3.28;;
34960;SDS011;30789;52.030;7.110;2022-12-18T08:16:38;9.27;;;3.17;;
34960;SDS011;30789;52.030;7.110;2022-12-18T08:19:05;7.15;;;3.22;;
34960;SDS011;30789;52.030;7.110;2022-12-18T08:21:31;3.50;;;2.63;;
34960;SDS011;30789;52.030;7.110;2022-12-18T08:23:58;4.88;;;2.88;;
34960;SDS011;30789;52.030;7.110;2022-12-18T08:26:26;5.32;;;4.20;;
34960;SDS011;30789;52.030;7.110;2022-12-18T08:28:53;5.97;;;3.75;;
34960;SDS011;30789;52.030;7.110;2022-12-18T08:31:20;3.58;;;2.85;;
34960;SDS011;30789;52.030;7.110;2022-12-18T08:33:47;5.45;;;2.80;;
34960;SDS011;30789;52.030;7.110;2022-12-18T08:36:14;6.78;;;3.78;;
34960;SDS011;30789;52.030;7.110;2022-12-18T08:38:40;4.82;;;3.17;;
34960;SDS011;30789;52.030;7.110;2022-12-18T08:41:07;4.78;;;3.28;;
34960;SDS011;30789;52.030;7.110;2022-12-18T08:43:36;6.97;;;3.45;;
34960;SDS011;30789;52.030;7.110;2022-12-18T08:46:20;4.38;;;3.08;;
34960;SDS011;30789;52.030;7.110;2022-12-18T08:48:47;5.57;;;3.60;;
34960;SDS011;30789;52.030;7.110;2022-12-18T08:51:15;5.78;;;3.25;;
34960;SDS011;30789;52.030;7.110;2022-12-18T08:53:41;4.20;;;3.00;;
34960;SDS011;30789;52.030;7.110;2022-12-18T08:56:08;7.53;;;3.92;;
34960;SDS011;30789;52.030;7.110;2022-12-18T08:58:35;19.52;;;9.35;;
34960;SDS011;30789;52.030;7.110;2022-12-18T09:01:02;40.22;;;14.95;;
34960;SDS011;30789;52.030;7.110;2022-12-18T09:03:29;11.80;;;4.78;;
34960;SDS011;30789;52.030;7.110;2022-12-18T09:05:55;9.40;;;4.30;;
34960;SDS011;30789;52.030;7.110;2022-12-18T09:08:21;7.55;;;3.83;;
34960;SDS011;30789;52.030;7.110;2022-12-18T09:10:48;6.55;;;2.95;;
34960;SDS011;30789;52.030;7.110;2022-12-18T09:13:15;6.40;;;3.53;;
34960;SDS011;30789;52.030;7.110;2022-12-18T09:15:44;6.97;;;3.78;;
34960;SDS011;30789;52.030;7.110;2022-12-18T09:18:11;8.25;;;4.07;;
34960;SDS011;30789;52.030;7.110;2022-12-18T09:20:38;9.15;;;4.70;;
34960;SDS011;30789;52.030;7.110;2022-12-18T09:23:04;7.50;;;4.00;;
34960;SDS011;30789;52.030;7.110;2022-12-18T09:25:30;10.25;;;5.85;;
34960;SDS011;30789;52.030;7.110;2022-12-18T09:27:58;8.50;;;5.25;;
34960;SDS011;30789;52.030;7.110;2022-12-18T09:30:24;8.38;;;4.97;;
34960;SDS011;30789;52.030;7.110;2022-12-18T09:32:54;8.75;;;5.30;;
34960;SDS011;30789;52.030;7.110;2022-12-18T09:35:20;5.28;;;3.50;;
34960;SDS011;30789;52.030;7.110;2022-12-18T09:37:47;7.22;;;3.88;;
34960;SDS011;30789;52.030;7.110;2022-12-18T09:40:13;7.70;;;3.00;;
34960;SDS011;30789;52.030;7.110;2022-12-18T09:42:40;6.78;;;3.85;;
34960;SDS011;30789;52.030;7.110;2022-12-18T09:45:07;5.32;;;3.03;;
34960;SDS011;30789;52.030;7.110;2022-12-18T09:47:35;6.00;;;4.18;;
34960;SDS011;30789;52.030;7.110;2022-12-18T09:50:04;7.22;;;4.72;;
34960;SDS011;30789;52.030;7.110;2022-12-18T09:52:33;8.40;;;4.55;;
34960;SDS011;30789;52.030;7.110;2022-12-18T09:55:01;8.90;;;5.07;;
34960;SDS011;30789;52.030;7.110;2022-12-18T09:57:28;9.30;;;4.55;;
34960;SDS011;30789;52.030;7.110;2022-12-18T09:59:56;7.82;;;4.35;;
34960;SDS011;30789;52.030;7.110;2022-12-18T10:02:25;6.30;;;4.00;;
34960;SDS011;30789;52.030;7.110;2022-12-18T10:04:55;8.90;;;4.38;;
34960;SDS011;30789;52.030;7.110;2022-12-18T10:07:28;9.50;;;4.90;;
34960;SDS011;30789;52.030;7.110;2022-12-18T10:09:58;6.18;;;3.83;;
34960;SDS011;30789;52.030;7.110;2022-12-18T10:12:28;7.82;;;4.47;;
34960;SDS011;30789;52.030;7.110;2022-12-18T10:14:59;4.90;;;4.25;;
34960;SDS011;30789;52.030;7.110;2022-12-18T10:17:31;6.35;;;3.95;;
34960;SDS011;30789;52.030;7.110;2022-12-18T10:20:01;6.63;;;3.70;;
34960;SDS011;30789;52.030;7.110;2022-12-18T10:22:33;6.60;;;3.92;;
34960;SDS011;30789;52.030;7.110;2022-12-18T10:25:03;8.10;;;6.47;;
34960;SDS011;30789;52.030;7.110;2022-12-18T10:27:31;7.65;;;6.65;;
34960;SDS011;30789;52.030;7.110;2022-12-18T10:29:58;5.43;;;4.15;;
34960;SDS011;30789;52.030;7.110;2022-12-18T10:32:25;4.75;;;3.60;;
34960;SDS011;30789;52.030;7.110;2022-12-18T10:34:53;6.45;;;4.65;;
34960;SDS011;30789;52.030;7.110;2022-12-18T10:37:20;3.95;;;3.03;;
34960;SDS011;30789;52.030;7.110;2022-12-18T10:40:04;4.75;;;3.38;;
34960;SDS011;30789;52.030;7.110;2022-12-18T10:42:32;5.40;;;3.58;;
34960;SDS011;30789;52.030;7.110;2022-12-18T10:45:00;8.80;;;3.90;;
34960;SDS011;30789;52.030;7.110;2022-12-18T10:47:27;6.38;;;3.38;;
34960;SDS011;30789;52.030;7.110;2022-12-18T10:49:53;6.90;;;3.78;;
34960;SDS011;30789;52.030;7.110;2022-12-18T10:52:21;6.22;;;3.95;;
34960;SDS011;30789;52.030;7.110;2022-12-18T10:54:50;5.88;;;4.28;;
34960;SDS011;30789;52.030;7.110;2022-12-18T10:57:19;9.40;;;3.92;;
34960;SDS011;30789;52.030;7.110;2022-12-18T10:59:56;5.25;;;3.92;;
34960;SDS011;30789;52.030;7.110;2022-12-18T11:02:26;6.13;;;3.53;;
34960;SDS011;30789;52.030;7.110;2022-12-18T11:04:53;7.33;;;3.83;;
34960;SDS011;30789;52.030;7.110;2022-12-18T11:07:19;5.38;;;3.47;;
34960;SDS011;30789;52.030;7.110;2022-12-18T11:09:45;7.10;;;4.00;;
34960;SDS011;30789;52.030;7.110;2022-12-18T11:12:29;6.82;;;3.00;;
34960;SDS011;30789;52.030;7.110;2022-12-18T11:14:58;4.85;;;3.40;;
34960;SDS011;30789;52.030;7.110;2022-12-18T11:17:27;6.07;;;3.65;;
34960;SDS011;30789;52.030;7.110;2022-12-18T11:19:55;7.50;;;3.70;;
34960;SDS011;30789;52.030;7.110;2022-12-18T11:22:23;7.95;;;4.10;;
34960;SDS011;30789;52.030;7.110;2022-12-18T11:24:52;6.57;;;4.65;;
34960;SDS011;30789;52.030;7.110;2022-12-18T11:27:19;6.25;;;3.95;;
34960;SDS011;30789;52.030;7.110;2022-12-18T11:29:47;6.20;;;4.00;;
34960;SDS011;30789;52.030;7.110;2022-12-18T11:35:01;7.28;;;3.67;;
34960;SDS011;30789;52.030;7.110;2022-12-18T11:37:28;9.93;;;4.35;;
34960;SDS011;30789;52.030;7.110;2022-12-18T11:39:56;6.65;;;4.28;;
34960;SDS011;30789;52.030;7.110;2022-12-18T11:42:24;5.63;;;3.85;;
34960;SDS011;30789;52.030;7.110;2022-12-18T11:44:55;7.55;;;5.30;;
34960;SDS011;30789;52.030;7.110;2022-12-18T11:47:24;7.18;;;3.97;;
34960;SDS011;30789;52.030;7.110;2022-12-18T11:49:53;4.65;;;3.63;;
34960;SDS011;30789;52.030;7.110;2022-12-18T11:52:22;7.82;;;3.67;;
34960;SDS011;30789;52.030;7.110;2022-12-18T11:54:53;6.13;;;4.03;;
34960;SDS011;30789;52.030;7.110;2022-12-18T11:57:26;7.05;;;3.00;;
34960;SDS011;30789;52.030;7.110;2022-12-18T11:59:55;3.78;;;2.90;;
34960;SDS011;30789;52.030;7.110;2022-12-18T12:02:33;4.03;;;3.05;;
34960;SDS011;30789;52.030;7.110;2022-12-18T12:05:14;5.47;;;3.45;;
34960;SDS011;30789;52.030;7.110;2022-12-18T12:07:44;4.70;;;2.80;;
34960;SDS011;30789;52.030;7.110;2022-12-18T12:10:16;6.07;;;3.53;;
34960;SDS011;30789;52.030;7.110;2022-12-18T12:12:51;3.15;;;2.65;;
34960;SDS011;30789;52.030;7.110;2022-12-18T12:15:25;4.00;;;2.67;;
34960;SDS011;30789;52.030;7.110;2022-12-18T12:20:20;4.75;;;3.00;;
34960;SDS011;30789;52.030;7.110;2022-12-18T12:22:49;3.97;;;2.72;;
34960;SDS011;30789;52.030;7.110;2022-12-18T12:25:20;2.83;;;2.05;;
34960;SDS011;30789;52.030;7.110;2022-12-18T12:27:51;8.40;;;3.45;;
34960;SDS011;30789;52.030;7.110;2022-12-18T12:30:24;3.35;;;2.30;;
34960;SDS011;30789;52.030;7.110;2022-12-18T12:33:01;4.75;;;2.85;;
34960;SDS011;30789;52.030;7.110;2022-12-18T12:35:34;3.90;;;2.78;;
34960;SDS011;30789;52.030;7.110;2022-12-18T12:38:06;9.55;;;2.67;;
34960;SDS011;30789;52.030;7.110;2022-12-18T12:40:35;4.68;;;2.88;;
34960;SDS011;30789;52.030;7.110;2022-12-18T12:43:03;2.40;;;2.15;;
34960;SDS011;30789;52.030;7.110;2022-12-18T12:45:41;6.28;;;2.78;;
34960;SDS011;30789;52.030;7.110;2022-12-18T12:48:13;4.45;;;3.28;;
34960;SDS011;30789;52.030;7.110;2022-12-18T12:50:41;3.13;;;2.10;;
34960;SDS011;30789;52.030;7.110;2022-12-18T12:53:09;4.28;;;2.55;;
34960;SDS011;30789;52.030;7.110;2022-12-18T12:55:40;4.25;;;2.78;;
34960;SDS011;30789;52.030;7.110;2022-12-18T12:58:10;6.47;;;2.78;;
34960;SDS011;30789;52.030;7.110;2022-12-18T13:00:41;10.52;;;5.47;;
34960;SDS011;30789;52.030;7.110;2022-12-18T13:03:14;18.15;;;8.98;;
34960;SDS011;30789;52.030;7.110;2022-12-18T13:05:43;18.30;;;7.50;;
34960;SDS011;30789;52.030;7.110;2022-12-18T13:08:12;13.18;;;7.07;;
34960;SDS011;30789;52.030;7.110;2022-12-18T13:10:47;7.97;;;5.07;;
34960;SDS011;30789;52.030;7.110;2022-12-18T13:13:14;8.35;;;5.07;;
34960;SDS011;30789;52.030;7.110;2022-12-18T13:15:41;9.73;;;5.30;;
34960;SDS011;30789;52.030;7.110;2022-12-18T13:18:14;8.60;;;5.47;;
34960;SDS011;30789;52.030;7.110;2022-12-18T13:20:42;9.95;;;4.65;;
34960;SDS011;30789;52.030;7.110;2022-12-18T13:25:56;8.70;;;5.78;;
34960;SDS011;30789;52.030;7.110;2022-12-18T13:28:23;9.88;;;5.30;;
34960;SDS011;30789;52.030;7.110;2022-12-18T13:30:51;7.90;;;5.82;;
34960;SDS011;30789;52.030;7.110;2022-12-18T13:33:38;9.48;;;5.38;;
34960;SDS011;30789;52.030;7.110;2022-12-18T13:36:09;10.95;;;5.78;;
34960;SDS011;30789;52.030;7.110;2022-12-18T13:38:38;8.65;;;5.03;;
34960;SDS011;30789;52.030;7.110;2022-12-18T13:41:04;15.52;;;8.20;;
34960;SDS011;30789;52.030;7.110;2022-12-18T13:43:47;12.98;;;6.90;;
34960;SDS011;30789;52.030;7.110;2022-12-18T13:46:17;8.48;;;5.50;;
34960;SDS011;30789;52.030;7.110;2022-12-18T13:48:50;8.50;;;5.47;;
34960;SDS011;30789;52.030;7.110;2022-12-18T13:51:17;9.07;;;5.65;;
34960;SDS011;30789;52.030;7.110;2022-12-18T13:53:44;11.77;;;5.90;;
34960;SDS011;30789;52.030;7.110;2022-12-18T13:56:15;9.75;;;5.78;;
34960;SDS011;30789;52.030;7.110;2022-12-18T13:58:44;10.30;;;5.57;;
34960;SDS011;30789;52.030;7.110;2022-12-18T14:01:20;11.65;;;5.70;;
34960;SDS011;30789;52.030;7.110;2022-12-18T14:03:47;8.85;;;5.90;;
34960;SDS011;30789;52.030;7.110;2022-12-18T14:06:15;10.55;;;7.15;;
34960;SDS011;30789;52.030;7.110;2022-12-18T14:08:42;10.88;;;5.97;;
34960;SDS011;30789;52.030;7.110;2022-12-18T14:11:17;9.88;;;6.38;;
34960;SDS011;30789;52.030;7.110;2022-12-18T14:13:43;13.98;;;5.72;;
34960;SDS011;30789;52.030;7.110;2022-12-18T14:16:12;7.75;;;5.22;;
34960;SDS011;30789;52.030;7.110;2022-12-18T14:18:42;11.32;;;6.70;;
34960;SDS011;30789;52.030;7.110;2022-12-18T14:21:17;9.98;;;5.65;;
34960;SDS011;30789;52.030;7.110;2022-12-18T14:23:43;8.25;;;5.60;;
34960;SDS011;30789;52.030;7.110;2022-12-18T14:26:19;9.63;;;5.35;;
34960;SDS011;30789;52.030;7.110;2022-12-18T14:28:46;11.15;;;6.18;;
34960;SDS011;30789;52.030;7.110;2022-12-18T14:31:16;8.52;;;5.78;;
34960;SDS011;30789;52.030;7.110;2022-12-18T14:33:43;9.40;;;5.03;;
34960;SDS011;30789;52.030;7.110;2022-12-18T14:36:13;7.72;;;5.03;;
34960;SDS011;30789;52.030;7.110;2022-12-18T14:38:42;8.27;;;5.28;;
34960;SDS011;30789;52.030;7.110;2022-12-18T14:41:10;11.80;;;5.95;;
34960;SDS011;30789;52.030;7.110;2022-12-18T14:43:37;8.32;;;5.28;;
34960;SDS011;30789;52.030;7.110;2022-12-18T14:46:04;9.52;;;5.20;;
34960;SDS011;30789;52.030;7.110;2022-12-18T14:48:35;9.30;;;6.07;;
34960;SDS011;30789;52.030;7.110;2022-12-18T14:51:03;14.45;;;7.57;;
34960;SDS011;30789;52.030;7.110;2022-12-18T14:53:34;9.45;;;4.97;;
34960;SDS011;30789;52.030;7.110;2022-12-18T14:56:03;15.23;;;6.40;;
34960;SDS011;30789;52.030;7.110;2022-12-18T14:58:29;12.68;;;6.22;;
34960;SDS011;30789;52.030;7.110;2022-12-18T15:00:56;15.40;;;7.30;;